createdAt,value
2018-01-24T00:01:05.667Z,5.79
2018-01-24T00:03:34.044Z,5.85
2018-01-24T00:06:02.423Z,5.94
2018-01-24T00:08:31.559Z,5.95
2018-01-24T00:10:59.912Z,5.92
2018-01-24T00:13:29.119Z,5.90
2018-01-24T00:15:58.427Z,5.94
2018-01-24T00:18:26.791Z,5.99
2018-01-24T00:20:55.887Z,6.03
2018-01-24T00:29:19.403Z,6.07
2018-01-24T00:31:47.763Z,6.10
2018-01-24T00:34:16.103Z,6.11
2018-01-24T00:36:46.092Z,6.11
2018-01-24T00:39:14.439Z,6.17
2018-01-24T00:41:42.799Z,6.16
2018-01-24T00:44:11.172Z,6.23
2018-01-24T00:46:39.543Z,6.29
2018-01-24T00:49:07.919Z,6.29
2018-01-24T00:54:33.115Z,6.25
2018-01-24T00:57:01.451Z,6.23
2018-01-24T00:59:30.535Z,6.25
2018-01-24T01:01:58.890Z,6.32
2018-01-24T01:07:24.010Z,6.28
2018-01-24T01:09:53.250Z,6.26
2018-01-24T01:12:21.618Z,6.28
2018-01-24T01:14:50.712Z,6.25
2018-01-24T01:17:19.846Z,6.18
2018-01-24T01:19:48.176Z,6.23
2018-01-24T01:24:49.984Z,6.27
2018-01-24T01:27:18.361Z,6.16
2018-01-24T01:29:46.665Z,6.23
2018-01-24T01:32:14.984Z,6.20
2018-01-24T01:34:44.109Z,6.21
2018-01-24T01:37:12.419Z,6.11
2018-01-24T01:39:40.731Z,6.15
2018-01-24T01:42:09.838Z,6.10
2018-01-24T01:44:38.953Z,6.10
2018-01-24T01:47:07.359Z,5.98
2018-01-24T01:49:35.671Z,5.98
2018-01-24T01:52:03.981Z,6.02
2018-01-24T01:54:32.332Z,6.08
2018-01-24T01:57:00.656Z,6.09
2018-01-24T01:59:29.004Z,6.05
2018-01-24T02:01:58.093Z,6.05
2018-01-24T02:04:27.229Z,6.16
2018-01-24T02:06:55.549Z,6.18
2018-01-24T02:09:23.856Z,6.16
2018-01-24T02:11:52.220Z,6.18
2018-01-24T02:14:21.297Z,6.20
2018-01-24T02:16:50.220Z,6.20
2018-01-24T02:19:18.528Z,6.19
2018-01-24T02:21:46.896Z,6.19
2018-01-24T02:24:15.245Z,6.19
2018-01-24T02:26:43.564Z,6.18
2018-01-24T02:29:11.911Z,6.20
2018-01-24T02:31:40.279Z,6.14
2018-01-24T02:34:08.592Z,6.09
2018-01-24T02:36:36.996Z,6.07
2018-01-24T02:39:17.501Z,6.05
2018-01-24T02:41:45.995Z,6.11
2018-01-24T02:44:15.081Z,6.06
2018-01-24T02:46:43.404Z,6.09
2018-01-24T02:49:11.770Z,6.11
2018-01-24T02:51:40.125Z,6.03
2018-01-24T02:54:09.256Z,6.08
2018-01-24T02:56:37.586Z,6.12
2018-01-24T02:59:05.942Z,6.00
2018-01-24T03:01:35.052Z,5.98
2018-01-24T03:04:03.408Z,6.00
2018-01-24T03:06:32.486Z,6.08
2018-01-24T03:09:00.835Z,6.10
2018-01-24T03:11:29.175Z,6.10
2018-01-24T03:13:58.311Z,6.11
2018-01-24T03:16:26.649Z,6.16
2018-01-24T03:18:54.976Z,6.23
2018-01-24T03:21:23.328Z,6.22
2018-01-24T03:23:51.631Z,6.22
2018-01-24T03:26:19.978Z,6.17
2018-01-24T03:28:48.391Z,6.18
2018-01-24T03:31:16.708Z,6.17
2018-01-24T03:33:45.054Z,6.21
2018-01-24T03:36:13.396Z,6.21
2018-01-24T03:38:41.755Z,6.19
2018-01-24T03:41:10.104Z,6.22
2018-01-24T03:43:38.420Z,6.18
2018-01-24T03:46:06.776Z,6.25
2018-01-24T03:48:35.988Z,6.26
2018-01-24T03:51:04.303Z,6.28
2018-01-24T03:53:32.620Z,6.28
2018-01-24T03:56:01.736Z,6.27
2018-01-24T03:58:30.083Z,6.31
2018-01-24T04:00:59.203Z,6.32
2018-01-24T04:03:27.537Z,6.28
2018-01-24T04:05:55.859Z,6.34
2018-01-24T04:08:24.207Z,6.41
2018-01-24T04:10:52.520Z,6.34
2018-01-24T04:13:20.863Z,6.35
2018-01-24T04:15:49.934Z,6.38
2018-01-24T04:18:18.303Z,6.40
2018-01-24T04:20:46.619Z,6.45
2018-01-24T04:23:15.694Z,6.53
2018-01-24T04:25:44.040Z,6.48
2018-01-24T04:28:12.384Z,6.45
2018-01-24T04:30:40.751Z,6.50
2018-01-24T04:33:09.856Z,6.54
2018-01-24T04:35:38.954Z,6.53
2018-01-24T04:38:07.294Z,6.59
2018-01-24T04:40:35.647Z,6.62
2018-01-24T04:43:03.956Z,6.64
2018-01-24T04:45:32.314Z,6.63
2018-01-24T04:48:00.618Z,6.71
2018-01-24T04:50:29.693Z,6.73
2018-01-24T04:52:58.049Z,6.65
2018-01-24T04:55:26.380Z,6.76
2018-01-24T04:57:55.481Z,6.73
2018-01-24T05:00:23.801Z,6.76
2018-01-24T05:02:52.156Z,6.74
2018-01-24T05:05:21.239Z,6.80
2018-01-24T05:07:49.560Z,6.82
2018-01-24T05:10:17.913Z,6.80
2018-01-24T05:12:46.983Z,6.82
2018-01-24T05:15:15.331Z,6.88
2018-01-24T05:17:43.646Z,6.89
2018-01-24T05:20:12.381Z,6.85
2018-01-24T05:22:40.686Z,6.85
2018-01-24T05:25:09.995Z,6.87
2018-01-24T05:27:39.093Z,6.93
2018-01-24T05:30:07.439Z,6.92
2018-01-24T05:32:35.777Z,6.95
2018-01-24T05:35:04.160Z,6.94
2018-01-24T05:37:32.487Z,6.95
2018-01-24T05:40:01.588Z,7.01
2018-01-24T05:42:30.768Z,7.02
2018-01-24T05:44:59.139Z,6.99
2018-01-24T05:47:27.499Z,7.00
2018-01-24T05:49:55.823Z,7.01
2018-01-24T05:52:24.155Z,7.02
2018-01-24T05:54:52.452Z,7.05
2018-01-24T05:57:20.795Z,7.05
2018-01-24T06:00:01.898Z,6.99
2018-01-24T06:02:30.351Z,7.17
2018-01-24T06:04:58.688Z,7.13
2018-01-24T06:07:27.788Z,7.12
2018-01-24T06:09:56.111Z,7.19
2018-01-24T06:12:24.557Z,7.15
2018-01-24T06:14:52.883Z,7.18
2018-01-24T06:17:21.230Z,7.20
2018-01-24T06:19:49.546Z,7.21
2018-01-24T06:22:17.923Z,7.21
2018-01-24T06:24:47.377Z,7.21
2018-01-24T06:27:15.706Z,7.24
2018-01-24T06:29:44.004Z,7.25
2018-01-24T06:32:13.151Z,7.27
2018-01-24T06:34:41.480Z,7.25
2018-01-24T06:37:09.833Z,7.25
2018-01-24T06:39:38.158Z,7.29
2018-01-24T06:42:06.518Z,7.33
2018-01-24T06:44:34.823Z,7.35
2018-01-24T06:47:03.386Z,7.37
2018-01-24T06:49:31.729Z,7.36
2018-01-24T06:52:00.066Z,7.39
2018-01-24T06:54:28.435Z,7.43
2018-01-24T06:56:56.786Z,7.48
2018-01-24T06:59:25.093Z,7.52
2018-01-24T07:01:53.433Z,7.53
2018-01-24T07:04:22.497Z,7.53
2018-01-24T07:06:50.871Z,7.62
2018-01-24T07:09:19.190Z,7.66
2018-01-24T07:11:47.481Z,7.68
2018-01-24T07:14:33.597Z,7.73
2018-01-24T07:17:01.938Z,7.79
2018-01-24T07:19:30.276Z,7.81
2018-01-24T07:21:58.578Z,7.82
2018-01-24T07:24:27.668Z,7.92
2018-01-24T07:26:56.746Z,7.98
2018-01-24T07:29:25.106Z,8.07
2018-01-24T07:31:53.420Z,8.12
2018-01-24T07:34:22.478Z,8.18
2018-01-24T07:36:50.808Z,8.26
2018-01-24T07:39:19.161Z,8.30
2018-01-24T07:41:48.228Z,8.35
2018-01-24T07:44:16.576Z,8.38
2018-01-24T07:46:44.904Z,8.39
2018-01-24T07:49:13.268Z,8.40
2018-01-24T07:51:41.565Z,8.41
2018-01-24T07:54:09.909Z,8.56
2018-01-24T07:56:38.205Z,8.66
2018-01-24T07:59:06.549Z,8.67
2018-01-24T08:01:34.904Z,8.67
2018-01-24T08:04:03.205Z,8.70
2018-01-24T08:06:31.564Z,8.76
2018-01-24T08:08:59.885Z,8.82
2018-01-24T08:11:28.266Z,8.91
2018-01-24T08:13:56.598Z,8.87
2018-01-24T08:16:24.904Z,8.89
2018-01-24T08:18:53.251Z,8.99
2018-01-24T08:21:21.589Z,9.12
2018-01-24T08:23:50.697Z,9.09
2018-01-24T08:26:19.814Z,9.12
2018-01-24T08:28:48.129Z,9.21
2018-01-24T08:31:16.474Z,9.35
2018-01-24T08:33:44.775Z,9.22
2018-01-24T08:36:13.180Z,9.27
2018-01-24T08:38:41.472Z,9.43
2018-01-24T08:41:10.541Z,9.47
2018-01-24T08:43:38.970Z,9.57
2018-01-24T08:46:07.289Z,9.68
2018-01-24T08:48:35.604Z,9.72
2018-01-24T08:51:04.709Z,9.60
2018-01-24T08:53:33.053Z,9.58
2018-01-24T08:56:01.371Z,9.43
2018-01-24T08:58:29.709Z,9.43
2018-01-24T09:00:58.047Z,9.49
2018-01-24T09:03:26.373Z,9.51
2018-01-24T09:05:54.713Z,9.30
2018-01-24T09:08:23.025Z,9.27
2018-01-24T09:10:51.360Z,9.32
2018-01-24T09:13:19.704Z,9.34
2018-01-24T09:15:48.030Z,9.39
2018-01-24T09:18:16.372Z,9.52
2018-01-24T09:20:44.681Z,9.66
2018-01-24T09:23:13.037Z,9.53
2018-01-24T09:25:41.370Z,9.51
2018-01-24T09:28:10.507Z,9.55
2018-01-24T09:30:38.837Z,9.82
2018-01-24T09:33:07.150Z,10.20
2018-01-24T09:35:35.502Z,10.42
2018-01-24T09:38:04.601Z,10.56
2018-01-24T09:40:33.745Z,10.73
2018-01-24T09:43:02.093Z,10.73
2018-01-24T09:45:30.409Z,10.71
2018-01-24T09:47:58.757Z,10.80
2018-01-24T09:50:27.065Z,10.67
2018-01-24T09:52:55.429Z,10.46
2018-01-24T09:55:23.747Z,10.25
2018-01-24T09:57:52.065Z,10.11
2018-01-24T10:00:20.404Z,10.14
2018-01-24T10:02:48.723Z,10.14
2018-01-24T10:05:17.051Z,10.15
2018-01-24T10:07:45.356Z,10.17
2018-01-24T10:10:13.687Z,10.15
2018-01-24T10:12:41.990Z,10.20
2018-01-24T10:15:11.101Z,10.28
2018-01-24T10:17:40.211Z,10.36
2018-01-24T10:20:08.517Z,10.38
2018-01-24T10:22:36.831Z,10.52
2018-01-24T10:25:05.227Z,10.61
2018-01-24T10:27:33.593Z,10.62
2018-01-24T10:30:02.688Z,10.67
2018-01-24T10:32:31.038Z,10.76
2018-01-24T10:34:59.385Z,10.75
2018-01-24T10:37:27.754Z,10.77
2018-01-24T10:39:56.137Z,10.86
2018-01-24T10:42:25.216Z,10.91
2018-01-24T10:44:53.536Z,11.09
2018-01-24T10:47:21.883Z,11.19
2018-01-24T10:49:50.236Z,11.20
2018-01-24T10:52:19.320Z,11.37
2018-01-24T10:54:48.478Z,11.40
2018-01-24T10:57:16.806Z,11.21
2018-01-24T10:59:45.892Z,11.10
2018-01-24T11:02:15.023Z,10.99
2018-01-24T11:04:43.384Z,10.95
2018-01-24T11:07:11.716Z,10.95
2018-01-24T11:09:40.519Z,10.93
2018-01-24T11:12:08.855Z,10.92
2018-01-24T11:14:37.208Z,10.91
2018-01-24T11:17:05.540Z,10.92
2018-01-24T11:19:33.876Z,10.87
2018-01-24T11:22:02.242Z,10.85
2018-01-24T11:24:30.556Z,10.82
2018-01-24T11:26:58.888Z,10.83
2018-01-24T11:29:27.247Z,10.84
2018-01-24T11:31:56.364Z,10.87
2018-01-24T11:34:24.682Z,10.90
2018-01-24T11:36:53.026Z,10.98
2018-01-24T11:39:21.356Z,11.06
2018-01-24T11:41:49.703Z,11.13
2018-01-24T11:44:18.067Z,11.21
2018-01-24T11:46:46.378Z,11.26
2018-01-24T11:49:14.748Z,11.32
2018-01-24T11:51:43.068Z,11.43
2018-01-24T11:54:12.187Z,11.52
2018-01-24T11:56:40.537Z,11.58
2018-01-24T11:59:08.852Z,11.42
2018-01-24T12:01:37.190Z,11.51
2018-01-24T12:04:06.324Z,11.49
2018-01-24T12:06:34.639Z,11.51
2018-01-24T12:09:02.966Z,11.43
2018-01-24T12:11:31.328Z,11.47
2018-01-24T12:14:00.417Z,11.57
2018-01-24T12:16:29.531Z,11.60
2018-01-24T12:18:57.851Z,11.62
2018-01-24T12:21:26.258Z,11.54
2018-01-24T12:23:55.354Z,11.59
2018-01-24T12:26:24.495Z,11.56
2018-01-24T12:28:52.809Z,11.60
2018-01-24T12:31:21.163Z,11.66
2018-01-24T12:33:49.503Z,11.75
2018-01-24T12:36:17.899Z,11.75
2018-01-24T12:38:46.219Z,11.82
2018-01-24T12:41:14.543Z,11.75
2018-01-24T12:43:42.903Z,11.75
2018-01-24T12:46:11.213Z,11.69
2018-01-24T12:48:39.577Z,11.64
2018-01-24T12:51:07.885Z,11.56
2018-01-24T12:53:36.247Z,11.63
2018-01-24T12:56:04.577Z,11.69
2018-01-24T12:58:33.695Z,11.77
2018-01-24T13:01:02.023Z,11.83
2018-01-24T13:03:30.367Z,11.72
2018-01-24T13:05:58.679Z,11.87
2018-01-24T13:08:27.044Z,11.98
2018-01-24T13:10:55.353Z,12.07
2018-01-24T13:13:23.675Z,12.13
2018-01-24T13:15:52.038Z,12.26
2018-01-24T13:18:20.408Z,12.41
2018-01-24T13:20:48.719Z,12.45
2018-01-24T13:23:17.076Z,12.46
2018-01-24T13:25:45.397Z,12.59
2018-01-24T13:28:13.749Z,12.60
2018-01-24T13:30:42.059Z,12.47
2018-01-24T13:33:10.385Z,12.45
2018-01-24T13:35:38.753Z,12.43
2018-01-24T13:38:07.055Z,12.47
2018-01-24T13:40:35.435Z,12.39
2018-01-24T13:43:03.771Z,12.32
2018-01-24T13:45:32.838Z,12.34
2018-01-24T13:48:01.168Z,12.33
2018-01-24T13:50:29.515Z,12.40
2018-01-24T13:52:58.647Z,12.45
2018-01-24T13:55:26.994Z,12.33
2018-01-24T13:57:55.311Z,12.26
2018-01-24T14:00:23.652Z,12.22
2018-01-24T14:02:52.750Z,12.08
2018-01-24T14:05:21.074Z,12.03
2018-01-24T14:07:49.417Z,11.97
2018-01-24T14:10:17.749Z,11.89
2018-01-24T14:12:46.081Z,11.90
2018-01-24T14:15:15.181Z,11.89
2018-01-24T14:17:43.555Z,11.81
2018-01-24T14:20:11.865Z,11.83
2018-01-24T14:22:40.187Z,11.78
2018-01-24T14:25:08.564Z,11.74
2018-01-24T14:27:36.936Z,11.59
2018-01-24T14:30:06.046Z,11.51
2018-01-24T14:32:34.370Z,11.42
2018-01-24T14:35:02.726Z,11.24
2018-01-24T14:37:31.041Z,11.01
2018-01-24T14:39:59.392Z,10.95
2018-01-24T14:42:27.692Z,10.79
2018-01-24T14:44:56.051Z,10.70
2018-01-24T14:47:24.378Z,10.61
2018-01-24T14:49:53.540Z,10.50
2018-01-24T14:52:21.863Z,10.38
2018-01-24T14:54:50.178Z,10.24
2018-01-24T14:57:18.522Z,10.11
2018-01-24T14:59:46.903Z,10.18
2018-01-24T15:02:15.272Z,10.27
2018-01-24T15:04:43.582Z,10.34
2018-01-24T15:07:11.888Z,10.36
2018-01-24T15:09:40.258Z,10.41
2018-01-24T15:12:08.574Z,10.36
2018-01-24T15:14:36.899Z,10.39
2018-01-24T15:17:05.739Z,10.38
2018-01-24T15:19:34.067Z,10.37
2018-01-24T15:22:02.420Z,10.36
2018-01-24T15:24:30.787Z,10.31
2018-01-24T15:26:59.138Z,10.21
2018-01-24T15:29:29.216Z,9.94
2018-01-24T15:31:57.590Z,9.69
2018-01-24T15:34:25.910Z,9.49
2018-01-24T15:36:54.242Z,9.33
2018-01-24T15:39:23.261Z,9.19
2018-01-24T15:41:52.438Z,9.08
2018-01-24T15:44:20.754Z,9.00
2018-01-24T15:46:49.848Z,8.88
2018-01-24T15:49:18.908Z,8.81
2018-01-24T15:51:47.242Z,8.73
2018-01-24T15:54:15.606Z,8.66
2018-01-24T15:56:45.104Z,8.60
2018-01-24T15:59:13.481Z,8.56
2018-01-24T16:01:41.835Z,8.53
2018-01-24T16:04:10.140Z,8.51
2018-01-24T16:06:39.278Z,8.45
2018-01-24T16:09:07.592Z,8.43
2018-01-24T16:11:36.696Z,8.39
2018-01-24T16:14:05.861Z,8.38
2018-01-24T16:16:34.259Z,8.37
2018-01-24T16:19:02.576Z,8.33
2018-01-24T16:21:30.889Z,8.28
2018-01-24T16:23:59.241Z,8.21
2018-01-24T16:26:27.668Z,8.16
2018-01-24T16:28:56.066Z,8.10
2018-01-24T16:31:25.223Z,8.06
2018-01-24T16:33:53.558Z,8.04
2018-01-24T16:36:21.924Z,8.05
2018-01-24T16:38:51.065Z,8.08
2018-01-24T16:41:19.522Z,8.05
2018-01-24T16:43:47.845Z,8.11
2018-01-24T16:46:16.199Z,8.08
2018-01-24T16:48:44.691Z,8.01
2018-01-24T16:51:13.069Z,7.98
2018-01-24T16:53:42.299Z,8.07
2018-01-24T16:56:11.453Z,7.99
2018-01-24T16:58:39.871Z,8.01
2018-01-24T17:01:08.188Z,8.03
2018-01-24T17:03:36.543Z,7.99
2018-01-24T17:06:10.296Z,7.94
2018-01-24T17:08:39.454Z,7.94
2018-01-24T17:11:07.788Z,7.97
2018-01-24T17:13:36.199Z,8.00
2018-01-24T17:16:04.536Z,7.93
2018-01-24T17:18:32.902Z,7.90
2018-01-24T17:21:01.690Z,7.84
2018-01-24T17:23:30.014Z,7.80
2018-01-24T17:25:58.380Z,7.78
2018-01-24T17:28:27.497Z,7.71
2018-01-24T17:30:55.923Z,7.72
2018-01-24T17:33:24.307Z,7.65
2018-01-24T17:35:52.630Z,7.63
2018-01-24T17:38:21.721Z,7.63
2018-01-24T17:40:52.392Z,7.61
2018-01-24T17:43:22.357Z,7.64
2018-01-24T17:45:51.477Z,7.64
2018-01-24T17:48:19.779Z,7.68
2018-01-24T17:50:48.143Z,7.72
2018-01-24T17:53:16.569Z,7.72
2018-01-24T17:55:44.967Z,7.66
2018-01-24T17:58:14.590Z,7.63
2018-01-24T18:00:42.970Z,7.62
2018-01-24T18:03:15.258Z,7.67
2018-01-24T18:05:43.659Z,7.69
2018-01-24T18:08:12.029Z,7.67
2018-01-24T18:10:40.344Z,7.66
2018-01-24T18:13:08.747Z,7.61
2018-01-24T18:15:38.628Z,7.68
2018-01-24T18:18:07.744Z,7.63
2018-01-24T18:20:36.903Z,7.60
2018-01-24T18:23:06.087Z,7.53
2018-01-24T18:25:34.494Z,7.54
2018-01-24T18:28:02.818Z,7.49
2018-01-24T18:30:31.578Z,7.53
2018-01-24T18:33:00.293Z,7.49
2018-01-24T18:35:28.654Z,7.45
2018-01-24T18:37:57.741Z,7.46
2018-01-24T18:40:26.088Z,7.43
2018-01-24T18:42:54.419Z,7.57
2018-01-24T18:45:22.772Z,7.57
2018-01-24T18:47:51.186Z,7.62
2018-01-24T18:50:19.565Z,7.63
2018-01-24T18:52:47.876Z,7.64
2018-01-24T18:55:17.186Z,7.64
2018-01-24T18:57:45.802Z,7.60
2018-01-24T19:00:15.292Z,7.62
2018-01-24T19:02:44.512Z,7.62
2018-01-24T19:05:14.903Z,7.60
2018-01-24T19:07:45.472Z,7.51
2018-01-24T19:10:16.124Z,7.61
2018-01-24T19:12:46.795Z,7.56
2018-01-24T19:15:16.750Z,7.62
2018-01-24T19:17:51.650Z,7.53
2018-01-24T19:23:29.828Z,7.41
2018-01-24T19:25:58.157Z,7.44
2018-01-24T19:28:28.004Z,7.41
2018-01-24T19:31:03.119Z,7.45
2018-01-24T19:33:31.602Z,7.38
2018-01-24T19:36:00.709Z,7.35
2018-01-24T19:38:29.099Z,7.30
2018-01-24T19:40:58.382Z,7.31
2018-01-24T19:43:26.710Z,7.25
2018-01-24T19:45:55.580Z,7.35
2018-01-24T19:48:24.054Z,7.38
2018-01-24T19:50:52.444Z,7.38
2018-01-24T19:53:20.834Z,7.29
2018-01-24T19:55:49.194Z,7.30
2018-01-24T19:58:17.552Z,7.46
2018-01-24T20:00:45.898Z,7.44
2018-01-24T20:03:15.033Z,7.39
2018-01-24T20:05:44.522Z,7.36
2018-01-24T20:08:12.946Z,7.42
2018-01-24T20:10:42.685Z,7.46
2018-01-24T20:13:11.821Z,7.38
2018-01-24T20:15:40.910Z,7.37
2018-01-24T20:18:09.284Z,7.42
2018-01-24T20:20:37.656Z,7.39
2018-01-24T20:23:07.268Z,7.38
2018-01-24T20:25:37.131Z,7.29
2018-01-24T20:28:05.500Z,7.30
2018-01-24T20:30:34.576Z,7.21
2018-01-24T20:33:04.753Z,7.17
2018-01-24T20:35:33.590Z,7.09
2018-01-24T20:38:01.988Z,7.04
2018-01-24T20:40:31.376Z,7.05
2018-01-24T20:43:01.240Z,7.02
2018-01-24T20:45:31.064Z,7.13
2018-01-24T20:48:01.154Z,7.10
2018-01-24T20:50:30.271Z,7.17
2018-01-24T20:52:59.542Z,7.24
2018-01-24T20:55:29.928Z,7.17
2018-01-24T20:57:58.285Z,7.13
2018-01-24T21:00:26.607Z,7.07
2018-01-24T21:02:55.498Z,7.04
2018-01-24T21:05:24.572Z,7.03
2018-01-24T21:07:52.913Z,7.01
2018-01-24T21:10:22.545Z,7.01
2018-01-24T21:12:51.753Z,7.02
2018-01-24T21:15:20.058Z,7.07
2018-01-24T21:17:48.375Z,7.04
2018-01-24T21:20:17.585Z,7.12
2018-01-24T21:22:45.883Z,7.18
2018-01-24T21:25:15.028Z,7.12
2018-01-24T21:27:44.134Z,7.23
2018-01-24T21:30:22.542Z,7.18
2018-01-24T21:36:03.779Z,7.13
2018-01-24T21:38:32.728Z,7.19
2018-01-24T21:41:01.853Z,7.14
2018-01-24T21:43:30.163Z,7.11
2018-01-24T21:45:58.487Z,7.10
2018-01-24T21:48:27.651Z,7.08
2018-01-24T21:50:56.900Z,7.10
2018-01-24T21:53:25.223Z,7.15
2018-01-24T21:55:53.553Z,7.13
2018-01-24T21:58:21.854Z,7.09
2018-01-24T22:00:50.508Z,7.07
2018-01-24T22:03:18.855Z,7.06
2018-01-24T22:05:47.155Z,7.07
2018-01-24T22:08:16.139Z,7.09
2018-01-24T22:10:45.214Z,7.11
2018-01-24T22:13:13.567Z,7.14
2018-01-24T22:15:41.879Z,7.18
2018-01-24T22:18:10.977Z,7.21
2018-01-24T22:20:40.051Z,7.24
2018-01-24T22:23:08.413Z,7.19
2018-01-24T22:25:37.702Z,7.19
2018-01-24T22:28:06.025Z,7.21
2018-01-24T22:30:34.535Z,7.22
2018-01-24T22:33:04.019Z,7.27
2018-01-24T22:35:33.114Z,7.33
2018-01-24T22:38:02.202Z,7.35
2018-01-24T22:40:31.319Z,7.36
2018-01-24T22:42:59.624Z,7.44
2018-01-24T22:45:27.986Z,7.61
2018-01-24T22:47:56.334Z,7.62
2018-01-24T22:50:25.401Z,7.65
2018-01-24T22:52:53.746Z,7.68
2018-01-24T22:55:22.054Z,7.76
2018-01-24T22:57:50.371Z,7.79
2018-01-24T23:00:28.545Z,7.84
2018-01-24T23:02:56.858Z,7.89
2018-01-24T23:05:25.196Z,7.97
2018-01-24T23:07:53.497Z,8.05
2018-01-24T23:10:21.885Z,8.12
2018-01-24T23:12:50.254Z,8.17
2018-01-24T23:15:20.290Z,8.22
2018-01-24T23:17:48.626Z,8.25
2018-01-24T23:20:16.923Z,8.26
2018-01-24T23:22:46.939Z,8.36
2018-01-24T23:25:16.006Z,8.37
2018-01-24T23:27:44.360Z,8.39
2018-01-24T23:30:12.712Z,8.39
2018-01-24T23:32:41.078Z,8.41
2018-01-24T23:35:10.058Z,8.42
2018-01-24T23:37:39.152Z,8.42
2018-01-24T23:40:07.530Z,8.42
2018-01-24T23:42:36.604Z,8.41
2018-01-24T23:45:04.962Z,8.39
2018-01-24T23:47:33.308Z,8.37
2018-01-24T23:50:01.630Z,8.37
2018-01-24T23:52:29.981Z,8.38
2018-01-24T23:54:58.398Z,8.40
2018-01-24T23:57:26.726Z,8.38
2018-01-24T23:59:55.050Z,8.45
